Time;durP1;ratioP1;P1;durP2;ratioP2;P2;SDS_P1;SDS_P2;PMS_P1;PMS_P2;Temp;Humidity;BMP_temperature;BMP_pressure;BME280_temperature;BME280_humidity;BME280_pressure;Samples;Min_cycle;Max_cycle;Signal;HPM_P1;HPM_P2
2023/03/19 00:01:03;;;;;;;9.73;5.80;;;19.40;51.70;;;;;;4973924;28;20198;-56
2023/03/19 00:03:30;;;;;;;10.75;5.97;;;19.40;52.00;;;;;;4972615;28;20609;-55
2023/03/19 00:05:58;;;;;;;10.10;5.53;;;19.40;51.80;;;;;;4973832;28;20190;-56
2023/03/19 00:08:25;;;;;;;12.40;5.85;;;19.30;51.20;;;;;;4972475;28;20712;-56
2023/03/19 00:10:53;;;;;;;8.85;5.80;;;19.30;50.90;;;;;;4972470;28;20237;-56
2023/03/19 00:13:21;;;;;;;7.93;5.10;;;19.30;51.00;;;;;;4973810;28;20691;-56
2023/03/19 00:15:48;;;;;;;10.30;5.60;;;19.20;51.00;;;;;;4973855;28;20201;-56
2023/03/19 00:18:15;;;;;;;10.40;5.15;;;19.20;50.80;;;;;;4973676;28;20214;-56
2023/03/19 00:20:43;;;;;;;8.65;5.40;;;19.20;50.70;;;;;;4972474;28;20540;-56
2023/03/19 00:23:11;;;;;;;10.40;5.60;;;19.20;50.80;;;;;;4972295;28;20209;-55
2023/03/19 00:25:38;;;;;;;8.18;5.78;;;19.20;50.80;;;;;;4973785;28;20264;-56
2023/03/19 00:28:06;;;;;;;8.93;5.03;;;19.10;50.80;;;;;;4973537;28;20632;-55
2023/03/19 00:30:34;;;;;;;9.93;5.60;;;19.10;50.50;;;;;;4972256;28;20217;-56
2023/03/19 00:33:01;;;;;;;7.72;5.03;;;19.10;50.50;;;;;;4972518;28;20206;-55
2023/03/19 00:35:28;;;;;;;7.40;4.80;;;19.10;50.50;;;;;;4973683;28;20273;-56
2023/03/19 00:37:55;;;;;;;9.38;5.50;;;19.10;50.50;;;;;;4972950;28;20691;-55
2023/03/19 00:40:23;;;;;;;9.25;4.97;;;19.00;50.40;;;;;;4972276;28;20202;-55
2023/03/19 00:42:50;;;;;;;8.57;4.95;;;19.00;50.40;;;;;;4972266;28;20289;-55
2023/03/19 00:45:17;;;;;;;7.90;5.22;;;19.00;50.30;;;;;;4972291;28;20280;-55
2023/03/19 00:47:45;;;;;;;10.38;5.28;;;19.00;50.40;;;;;;4972247;28;20229;-55
2023/03/19 00:50:14;;;;;;;9.32;5.18;;;19.00;50.40;;;;;;4972070;28;20228;-56
2023/03/19 00:52:42;;;;;;;7.22;4.97;;;18.90;50.30;;;;;;4973402;28;20201;-55
2023/03/19 00:55:09;;;;;;;9.10;5.05;;;19.00;50.50;;;;;;4972163;28;20194;-56
2023/03/19 00:57:37;;;;;;;9.70;5.15;;;18.90;50.30;;;;;;4972732;28;20194;-56
2023/03/19 01:00:04;;;;;;;7.05;4.40;;;18.90;50.30;;;;;;4975562;28;20214;-56
2023/03/19 01:02:32;;;;;;;8.05;4.72;;;18.90;50.20;;;;;;4976992;28;20228;-55
2023/03/19 01:05:00;;;;;;;7.63;4.85;;;18.90;50.30;;;;;;4976893;28;20194;-55
2023/03/19 01:07:27;;;;;;;8.75;4.82;;;18.90;50.20;;;;;;4976832;28;20190;-56
2023/03/19 01:09:56;;;;;;;9.23;4.95;;;18.90;50.40;;;;;;4975650;28;20602;-56
2023/03/19 01:12:23;;;;;;;8.50;4.85;;;18.80;50.30;;;;;;4975545;28;20202;-55
2023/03/19 01:14:50;;;;;;;8.70;4.20;;;18.90;50.20;;;;;;4977063;28;20190;-55
2023/03/19 01:17:17;;;;;;;7.03;4.70;;;18.80;50.10;;;;;;4975442;28;20206;-55
2023/03/19 01:19:44;;;;;;;6.93;4.80;;;18.80;50.10;;;;;;4975235;28;20214;-55
2023/03/19 01:22:15;;;;;;;6.07;4.60;;;18.80;50.30;;;;;;4982060;23;20233;-81
2023/03/19 01:24:46;;;;;;;7.53;4.65;;;18.80;50.20;;;;;;4942080;29;20215;-79
2023/03/19 01:27:15;;;;;;;6.85;4.45;;;18.80;50.20;;;;;;4941413;29;20277;-79
2023/03/19 01:29:41;;;;;;;7.13;4.55;;;18.80;50.30;;;;;;4941563;29;20222;-79
2023/03/19 01:32:13;;;;;;;7.03;4.40;;;18.80;50.40;;;;;;4926417;29;20206;-79
2023/03/19 01:35:01;;;;;;;6.68;4.78;;;18.70;50.30;;;;;;4958546;28;20568;-79
2023/03/19 01:37:29;;;;;;;7.35;4.30;;;18.70;50.20;;;;;;4925942;29;20201;-79
2023/03/19 01:39:56;;;;;;;6.88;4.78;;;18.70;50.20;;;;;;4941870;29;20204;-79
2023/03/19 01:42:23;;;;;;;7.95;4.60;;;18.70;50.30;;;;;;4942325;29;20199;-79
2023/03/19 01:45:32;;;;;;;6.88;4.43;;;18.70;50.30;;;;;;4941209;29;20566;-79
2023/03/19 01:48:29;;;;;;;6.57;4.32;;;18.70;50.30;;;;;;4947863;29;20198;-79
2023/03/19 01:51:06;;;;;;;5.28;4.03;;;18.70;50.30;;;;;;4926994;29;20210;-79
2023/03/19 01:54:02;;;;;;;6.60;4.43;;;18.70;50.40;;;;;;4954225;28;20296;-79
2023/03/19 01:56:50;;;;;;;7.65;4.68;;;18.70;50.20;;;;;;4941208;29;20230;-79
2023/03/19 01:59:27;;;;;;;7.50;4.75;;;18.70;50.40;;;;;;4941499;29;20195;-79
2023/03/19 02:02:16;;;;;;;6.38;4.43;;;18.60;50.30;;;;;;4958633;29;20189;-79
2023/03/19 02:04:43;;;;;;;6.65;4.38;;;18.60;50.10;;;;;;4941605;29;20222;-79
2023/03/19 02:07:11;;;;;;;6.55;4.30;;;18.60;50.20;;;;;;4942452;29;20210;-80
2023/03/19 02:09:40;;;;;;;5.60;4.10;;;18.60;50.20;;;;;;4941144;29;20673;-80
2023/03/19 02:12:08;;;;;;;4.93;3.88;;;18.60;50.10;;;;;;4941738;29;20206;-80
2023/03/19 02:14:35;;;;;;;5.55;3.97;;;18.60;50.10;;;;;;4941046;29;20214;-80
2023/03/19 02:17:02;;;;;;;7.25;4.38;;;18.60;50.80;;;;;;4940981;29;20225;-80
2023/03/19 02:19:33;;;;;;;5.78;4.22;;;18.60;50.20;;;;;;4940751;29;20197;-80
2023/03/19 02:22:00;;;;;;;5.63;3.95;;;18.60;50.00;;;;;;4940610;29;20202;-80
2023/03/19 02:24:30;;;;;;;5.43;4.20;;;18.60;50.00;;;;;;4940792;29;20592;-80
2023/03/19 02:27:06;;;;;;;5.30;4.05;;;18.50;50.00;;;;;;4926174;29;20556;-80
2023/03/19 02:29:34;;;;;;;5.63;4.05;;;18.60;50.00;;;;;;4940398;29;20219;-80
2023/03/19 02:32:02;;;;;;;6.00;4.32;;;18.60;50.10;;;;;;4940711;29;20657;-80
2023/03/19 02:34:35;;;;;;;6.05;4.35;;;18.60;50.00;;;;;;4940968;29;20749;-80
2023/03/19 02:37:04;;;;;;;5.40;4.18;;;18.50;49.90;;;;;;4940720;29;20638;-80
2023/03/19 02:39:33;;;;;;;5.30;4.10;;;18.60;50.10;;;;;;4940329;29;20619;-80
2023/03/19 02:42:00;;;;;;;6.10;4.10;;;18.50;50.00;;;;;;4941349;29;20206;-80
2023/03/19 02:44:31;;;;;;;6.93;4.03;;;18.50;50.10;;;;;;4940493;29;20220;-80
2023/03/19 02:46:59;;;;;;;6.18;4.35;;;18.50;50.20;;;;;;4941194;29;20255;-80
2023/03/19 02:49:26;;;;;;;5.15;4.00;;;18.50;50.20;;;;;;4941676;29;20195;-80
2023/03/19 02:51:54;;;;;;;5.55;3.97;;;18.50;50.20;;;;;;4955894;29;20194;-80
2023/03/19 02:54:22;;;;;;;5.07;4.22;;;18.50;50.10;;;;;;4943642;29;20222;-80
2023/03/19 02:56:51;;;;;;;6.43;4.20;;;18.50;50.20;;;;;;4959586;29;20209;-80
2023/03/19 02:59:18;;;;;;;6.07;4.28;;;18.50;50.30;;;;;;4928848;29;20206;-80
2023/03/19 03:01:47;;;;;;;7.50;4.30;;;18.50;50.30;;;;;;4940488;29;20254;-80
2023/03/19 03:04:15;;;;;;;6.25;4.07;;;18.50;50.30;;;;;;4940941;29;20317;-80
2023/03/19 03:06:42;;;;;;;5.82;3.90;;;18.50;50.40;;;;;;4941150;29;20274;-80
2023/03/19 03:09:09;;;;;;;5.15;3.80;;;18.50;50.40;;;;;;4960967;29;20201;-80
2023/03/19 03:11:36;;;;;;;5.07;3.70;;;18.50;50.50;;;;;;4945033;29;20256;-80
2023/03/19 03:14:04;;;;;;;5.15;3.97;;;18.50;50.50;;;;;;4943906;29;20670;-80
2023/03/19 03:16:31;;;;;;;4.97;4.00;;;18.50;50.50;;;;;;4928499;29;20191;-80
2023/03/19 03:19:02;;;;;;;6.20;4.13;;;18.50;50.50;;;;;;4942717;29;20202;-80
2023/03/19 03:21:30;;;;;;;6.88;4.03;;;18.50;50.50;;;;;;4959911;28;20208;-80
2023/03/19 03:23:57;;;;;;;6.55;4.03;;;18.40;51.00;;;;;;4942722;29;20241;-80
2023/03/19 03:26:24;;;;;;;6.57;3.70;;;18.40;50.50;;;;;;4942764;29;20205;-79
2023/03/19 03:28:52;;;;;;;4.30;3.70;;;18.40;50.50;;;;;;4942584;29;20203;-79
2023/03/19 03:31:19;;;;;;;4.50;3.25;;;18.40;50.70;;;;;;4942657;29;20223;-79
2023/03/19 03:33:46;;;;;;;4.45;3.55;;;18.40;50.70;;;;;;4942132;29;20229;-79
2023/03/19 03:36:14;;;;;;;5.35;3.45;;;18.40;51.10;;;;;;4941571;29;20194;-79
2023/03/19 03:38:42;;;;;;;4.80;3.60;;;18.40;50.50;;;;;;4941368;29;20195;-79
2023/03/19 03:41:09;;;;;;;4.13;3.72;;;18.40;50.60;;;;;;4940770;29;20195;-79
2023/03/19 03:43:36;;;;;;;5.25;3.92;;;18.40;50.60;;;;;;4939816;29;20587;-79
2023/03/19 03:46:03;;;;;;;5.28;4.30;;;18.40;50.50;;;;;;4939469;29;20206;-80
2023/03/19 03:48:30;;;;;;;5.50;4.15;;;18.40;50.50;;;;;;4939137;29;20281;-80
2023/03/19 03:50:57;;;;;;;5.35;4.00;;;18.40;51.00;;;;;;4939507;29;20222;-80
2023/03/19 03:53:28;;;;;;;6.70;3.95;;;18.40;50.40;;;;;;4924173;29;20222;-80
2023/03/19 03:55:55;;;;;;;5.97;4.20;;;18.40;50.50;;;;;;4940281;29;20201;-80
2023/03/19 03:58:25;;;;;;;5.05;3.67;;;18.40;50.50;;;;;;4939392;29;20691;-80
2023/03/19 04:00:53;;;;;;;3.85;3.42;;;18.40;50.50;;;;;;4923336;29;20195;-80
2023/03/19 04:03:23;;;;;;;4.55;3.50;;;18.40;50.60;;;;;;4939027;29;20219;-80
2023/03/19 04:05:50;;;;;;;4.18;3.17;;;18.40;50.60;;;;;;4939112;29;20199;-80
2023/03/19 04:08:17;;;;;;;3.53;2.95;;;18.40;50.50;;;;;;4940022;29;20226;-80
2023/03/19 04:10:45;;;;;;;4.18;3.33;;;18.40;50.60;;;;;;4939161;29;20222;-80
2023/03/19 04:13:13;;;;;;;4.38;3.03;;;18.30;50.50;;;;;;4939376;28;20313;-80
2023/03/19 04:15:42;;;;;;;3.97;3.15;;;18.40;50.60;;;;;;4939670;29;20199;-80
2023/03/19 04:18:10;;;;;;;6.07;3.72;;;18.30;50.50;;;;;;4924032;29;20694;-80
2023/03/19 04:20:37;;;;;;;4.25;3.85;;;18.40;50.50;;;;;;4939458;29;20206;-80
2023/03/19 04:23:04;;;;;;;5.65;3.78;;;18.30;50.40;;;;;;4939059;28;20609;-80
2023/03/19 04:25:32;;;;;;;5.30;3.55;;;18.30;50.30;;;;;;4940221;29;20202;-80
2023/03/19 04:28:00;;;;;;;4.65;3.22;;;18.30;50.30;;;;;;4938956;29;20205;-80
2023/03/19 04:30:29;;;;;;;4.25;3.03;;;18.40;50.50;;;;;;4939160;29;20645;-80
2023/03/19 04:32:56;;;;;;;4.57;3.53;;;18.30;50.50;;;;;;4940320;28;20214;-80
2023/03/19 04:35:24;;;;;;;4.38;3.78;;;18.40;50.90;;;;;;4943572;29;20199;-80
2023/03/19 04:37:51;;;;;;;5.28;4.10;;;18.40;50.70;;;;;;4928936;29;20203;-80
2023/03/19 04:40:21;;;;;;;4.90;3.75;;;18.50;50.50;;;;;;4944779;29;20566;-80
2023/03/19 04:42:48;;;;;;;4.57;3.55;;;18.50;50.40;;;;;;4944338;29;20203;-80
2023/03/19 04:45:30;;;;;;;4.35;3.70;;;18.50;50.20;;;;;;4942544;29;20198;-80
2023/03/19 04:47:58;;;;;;;5.25;3.70;;;18.60;50.10;;;;;;4942640;29;20199;-80
2023/03/19 04:50:26;;;;;;;4.53;3.75;;;18.60;50.00;;;;;;4926718;29;20305;-80
2023/03/19 04:52:54;;;;;;;4.50;3.70;;;18.60;49.80;;;;;;4926593;28;20199;-80
2023/03/19 04:55:22;;;;;;;3.95;3.53;;;18.70;49.90;;;;;;4942495;29;20210;-80
2023/03/19 04:58:03;;;;;;;4.03;3.45;;;18.70;49.80;;;;;;4941929;29;20274;-80
2023/03/19 05:00:34;;;;;;;4.18;3.63;;;18.70;49.60;;;;;;4942135;29;20206;-80
2023/03/19 05:03:02;;;;;;;4.45;3.50;;;18.70;49.60;;;;;;4942404;28;20322;-81
2023/03/19 05:05:31;;;;;;;4.30;3.35;;;18.70;49.60;;;;;;4941859;29;20294;-81
2023/03/19 05:07:58;;;;;;;5.03;3.72;;;18.70;49.60;;;;;;4942001;29;20290;-81
2023/03/19 05:10:26;;;;;;;4.18;3.47;;;18.80;49.70;;;;;;4941715;29;20266;-81
2023/03/19 05:12:54;;;;;;;4.70;3.53;;;18.70;49.40;;;;;;4926229;28;20194;-81
2023/03/19 05:15:21;;;;;;;3.83;3.33;;;18.70;49.40;;;;;;4942315;29;20562;-81
2023/03/19 05:18:00;;;;;;;4.60;3.30;;;18.70;49.50;;;;;;4942551;29;20190;-81
2023/03/19 05:20:33;;;;;;;3.22;2.92;;;18.60;49.40;;;;;;4941529;29;20197;-79
2023/03/19 05:23:05;;;;;;;3.80;3.30;;;18.60;49.50;;;;;;4942950;28;20257;-80
2023/03/19 05:25:46;;;;;;;3.65;2.80;;;18.60;49.60;;;;;;4942133;29;20210;-80
2023/03/19 05:28:18;;;;;;;3.33;3.03;;;18.60;49.60;;;;;;4942683;29;20211;-80
2023/03/19 05:30:45;;;;;;;4.32;3.10;;;18.60;49.70;;;;;;4942053;29;20243;-80
2023/03/19 05:33:34;;;;;;;4.00;3.30;;;18.70;49.80;;;;;;4942428;29;20290;-81
2023/03/19 05:36:01;;;;;;;3.70;3.35;;;18.60;49.70;;;;;;4941514;29;20250;-81
2023/03/19 05:38:41;;;;;;;3.50;3.15;;;18.60;49.80;;;;;;4942275;29;20214;-80
2023/03/19 05:41:14;;;;;;;4.65;3.40;;;18.60;49.80;;;;;;4941398;29;20569;-80
2023/03/19 05:43:59;;;;;;;3.90;3.40;;;18.60;49.70;;;;;;4941015;28;20219;-80
2023/03/19 05:46:45;;;;;;;3.55;3.25;;;18.60;49.80;;;;;;4957995;29;20191;-80
2023/03/19 05:49:14;;;;;;;4.50;3.53;;;18.60;49.70;;;;;;4941263;29;20194;-79
2023/03/19 05:51:41;;;;;;;3.50;3.10;;;18.60;49.80;;;;;;4941100;29;20253;-80
2023/03/19 05:54:09;;;;;;;2.95;2.63;;;18.60;49.80;;;;;;4941963;29;20225;-80
2023/03/19 05:56:44;;;;;;;4.32;3.47;;;18.70;49.80;;;;;;4941286;29;20649;-80
2023/03/19 05:59:27;;;;;;;3.38;3.00;;;18.60;49.70;;;;;;4941182;29;20227;-80
2023/03/19 06:02:09;;;;;;;5.07;3.55;;;18.60;49.70;;;;;;4941091;29;20234;-80
2023/03/19 06:04:39;;;;;;;4.10;3.20;;;18.60;49.60;;;;;;4941633;29;20223;-80
2023/03/19 06:07:07;;;;;;;4.65;3.17;;;18.60;49.70;;;;;;4940798;29;20570;-80
2023/03/19 06:09:36;;;;;;;3.85;3.15;;;18.60;49.60;;;;;;4940531;29;20266;-80
2023/03/19 06:12:05;;;;;;;4.57;3.00;;;18.70;49.60;;;;;;4925251;29;20270;-80
2023/03/19 06:14:52;;;;;;;3.45;3.13;;;18.70;49.60;;;;;;4957798;28;20303;-80
2023/03/19 06:17:38;;;;;;;2.95;2.75;;;18.70;49.70;;;;;;4943565;29;20190;-80
2023/03/19 06:20:11;;;;;;;3.40;3.08;;;18.70;49.70;;;;;;4940641;29;20221;-80
2023/03/19 06:22:40;;;;;;;3.60;3.30;;;18.70;49.60;;;;;;4940706;29;20210;-80
2023/03/19 06:25:08;;;;;;;5.25;3.20;;;18.60;49.60;;;;;;4940447;29;20327;-80
2023/03/19 06:27:37;;;;;;;5.00;3.08;;;18.70;49.60;;;;;;4941589;29;20222;-80
2023/03/19 06:30:19;;;;;;;5.40;3.00;;;18.70;49.70;;;;;;4926771;29;20735;-80
2023/03/19 06:32:47;;;;;;;3.78;3.25;;;18.70;49.60;;;;;;4940829;29;20218;-80
2023/03/19 06:35:16;;;;;;;3.42;2.97;;;18.70;49.50;;;;;;4941406;29;20720;-80
2023/03/19 06:37:45;;;;;;;3.47;3.17;;;18.70;49.50;;;;;;4941040;29;20235;-80
2023/03/19 06:40:12;;;;;;;3.88;3.00;;;18.70;49.50;;;;;;4939980;29;20202;-80
2023/03/19 06:42:40;;;;;;;3.80;3.35;;;18.70;49.60;;;;;;4939954;29;20202;-80
2023/03/19 06:45:09;;;;;;;2.70;2.50;;;18.70;49.60;;;;;;4939934;29;20215;-80
2023/03/19 06:47:36;;;;;;;3.65;3.00;;;18.70;49.70;;;;;;4940022;29;20643;-80
2023/03/19 06:50:03;;;;;;;3.33;2.80;;;18.70;49.60;;;;;;4940299;29;20214;-80
2023/03/19 06:52:32;;;;;;;3.33;3.03;;;18.70;49.60;;;;;;4940410;29;20210;-80
2023/03/19 06:55:00;;;;;;;3.88;2.92;;;18.80;49.60;;;;;;4939930;29;20234;-80
2023/03/19 06:57:27;;;;;;;5.15;3.13;;;18.80;49.70;;;;;;4939665;29;20203;-80
2023/03/19 06:59:54;;;;;;;3.88;3.10;;;18.80;49.60;;;;;;4940050;29;20206;-81
2023/03/19 07:02:22;;;;;;;3.10;2.80;;;18.70;49.60;;;;;;4940829;29;20218;-81
2023/03/19 07:04:49;;;;;;;3.85;3.00;;;18.80;49.60;;;;;;4924631;29;20233;-81
2023/03/19 07:07:16;;;;;;;3.58;3.00;;;18.80;49.50;;;;;;4941052;29;20203;-81
2023/03/19 07:09:45;;;;;;;3.15;2.83;;;18.90;49.40;;;;;;4940976;29;20209;-80
2023/03/19 07:12:13;;;;;;;3.28;2.72;;;18.90;49.40;;;;;;4940391;29;20238;-80
2023/03/19 07:14:40;;;;;;;3.28;2.97;;;18.90;49.40;;;;;;4940533;29;20532;-81
2023/03/19 07:17:07;;;;;;;3.63;2.78;;;19.00;49.40;;;;;;4940196;29;20736;-80
2023/03/19 07:19:35;;;;;;;3.30;3.00;;;19.00;49.40;;;;;;4940113;29;20218;-79
2023/03/19 07:22:02;;;;;;;3.25;3.05;;;18.90;49.30;;;;;;4940067;29;20567;-79
2023/03/19 07:24:29;;;;;;;3.50;3.10;;;19.00;49.10;;;;;;4939764;29;20667;-80
2023/03/19 07:26:58;;;;;;;3.72;3.40;;;19.00;49.00;;;;;;4957167;29;20198;-80
2023/03/19 07:29:25;;;;;;;3.33;3.03;;;19.00;48.80;;;;;;4939519;29;20708;-80
2023/03/19 07:31:52;;;;;;;3.45;3.15;;;19.00;48.80;;;;;;4939739;29;20218;-80
2023/03/19 07:34:19;;;;;;;3.33;3.03;;;19.00;48.70;;;;;;4939489;29;20225;-80
2023/03/19 07:36:47;;;;;;;4.00;3.13;;;19.10;48.60;;;;;;4939586;29;20203;-80
2023/03/19 07:39:15;;;;;;;3.75;2.90;;;19.10;48.60;;;;;;4939739;29;20289;-80
2023/03/19 07:41:43;;;;;;;3.38;3.08;;;19.10;48.60;;;;;;4939528;29;20198;-80
2023/03/19 07:44:16;;;;;;;3.30;3.00;;;19.10;48.70;;;;;;4939498;29;20223;-80
2023/03/19 07:46:43;;;;;;;3.38;3.08;;;19.10;48.60;;;;;;4939027;29;20205;-79
2023/03/19 07:49:10;;;;;;;3.40;3.10;;;19.10;48.50;;;;;;4938998;29;20301;-79
2023/03/19 07:51:39;;;;;;;4.15;3.45;;;19.10;48.40;;;;;;4939189;29;20776;-80
2023/03/19 07:54:06;;;;;;;3.33;3.03;;;19.20;48.40;;;;;;4939446;29;20214;-80
2023/03/19 07:56:34;;;;;;;4.40;3.15;;;19.10;48.30;;;;;;4923400;29;20250;-80
2023/03/19 07:59:01;;;;;;;3.35;3.05;;;19.20;48.20;;;;;;4939285;29;20206;-80
2023/03/19 08:01:29;;;;;;;2.88;2.60;;;19.20;48.30;;;;;;4939082;29;20646;-80
2023/03/19 08:03:57;;;;;;;3.83;3.03;;;19.20;48.20;;;;;;4938885;29;20235;-80
2023/03/19 08:06:24;;;;;;;3.88;3.17;;;19.20;48.20;;;;;;4939208;29;20207;-80
2023/03/19 08:08:51;;;;;;;3.70;3.25;;;19.20;48.10;;;;;;4941265;29;20209;-80
2023/03/19 08:11:18;;;;;;;3.22;2.80;;;19.20;48.10;;;;;;4926623;29;20218;-80
2023/03/19 08:13:46;;;;;;;3.38;3.08;;;19.20;48.10;;;;;;4942854;29;20222;-80
2023/03/19 08:16:13;;;;;;;3.53;3.20;;;19.20;48.80;;;;;;4942917;29;20203;-80
2023/03/19 08:18:42;;;;;;;4.25;3.45;;;19.20;48.10;;;;;;4943833;29;20237;-80
2023/03/19 08:21:09;;;;;;;4.10;2.85;;;19.30;48.10;;;;;;4942965;29;20202;-80
2023/03/19 08:23:36;;;;;;;3.80;2.97;;;19.30;48.10;;;;;;4942922;29;20285;-80
2023/03/19 08:26:03;;;;;;;4.03;3.30;;;19.30;48.00;;;;;;4942875;29;20725;-80
2023/03/19 08:28:31;;;;;;;3.22;2.90;;;19.30;47.90;;;;;;4926835;29;20570;-80
2023/03/19 08:30:58;;;;;;;3.13;2.80;;;19.40;48.00;;;;;;4959857;29;20194;-80
2023/03/19 08:33:25;;;;;;;2.95;2.75;;;19.40;47.90;;;;;;4943478;29;20226;-80
2023/03/19 08:35:54;;;;;;;3.47;2.95;;;19.40;47.90;;;;;;4927083;29;20234;-80
2023/03/19 08:38:21;;;;;;;3.13;2.83;;;19.40;48.00;;;;;;4942693;29;20218;-80
2023/03/19 08:40:48;;;;;;;3.30;2.65;;;19.40;47.90;;;;;;4942877;29;20213;-80
2023/03/19 08:43:16;;;;;;;3.38;2.80;;;19.50;47.90;;;;;;4942828;29;20218;-80
2023/03/19 08:45:42;;;;;;;3.78;3.30;;;19.50;47.70;;;;;;4942227;29;20199;-80
2023/03/19 08:48:10;;;;;;;3.10;2.80;;;19.60;47.70;;;;;;4942550;29;20217;-79
2023/03/19 08:50:37;;;;;;;3.45;3.15;;;19.50;47.70;;;;;;4942860;29;20681;-79
2023/03/19 08:53:05;;;;;;;3.67;3.25;;;19.60;47.60;;;;;;4941976;28;20214;-79
2023/03/19 08:55:32;;;;;;;4.93;3.05;;;19.60;47.50;;;;;;4942353;29;20265;-79
2023/03/19 08:57:59;;;;;;;3.20;2.90;;;19.70;47.60;;;;;;4943282;29;20333;-79
2023/03/19 09:00:26;;;;;;;3.88;3.35;;;19.70;47.50;;;;;;4948942;29;20203;-79
2023/03/19 09:02:53;;;;;;;3.42;3.10;;;19.70;47.50;;;;;;4952962;28;20199;-79
2023/03/19 09:05:21;;;;;;;4.15;2.83;;;19.70;47.40;;;;;;4965171;29;20206;-77
2023/03/19 09:07:48;;;;;;;3.40;3.00;;;19.80;47.50;;;;;;4944540;29;20658;-80
2023/03/19 09:10:16;;;;;;;3.55;2.80;;;19.80;47.40;;;;;;4944449;29;20206;-78
2023/03/19 09:12:44;;;;;;;3.72;3.30;;;19.90;47.30;;;;;;4942854;29;20223;-79
2023/03/19 09:15:11;;;;;;;2.88;2.67;;;19.90;47.20;;;;;;4911027;29;20234;-80
2023/03/19 09:17:38;;;;;;;4.20;2.75;;;20.00;47.00;;;;;;4942641;29;20302;-80
2023/03/19 09:20:06;;;;;;;5.18;3.00;;;20.00;47.10;;;;;;4942124;29;20254;-79
2023/03/19 09:22:33;;;;;;;3.00;2.70;;;20.10;47.70;;;;;;4942072;29;20202;-78
2023/03/19 09:25:00;;;;;;;3.08;2.75;;;20.10;47.00;;;;;;4942107;29;20285;-78
2023/03/19 09:27:29;;;;;;;2.92;2.40;;;20.20;46.80;;;;;;4926898;29;20574;-78
2023/03/19 09:29:56;;;;;;;3.15;2.65;;;20.20;46.50;;;;;;4946123;29;20207;-78
2023/03/19 09:32:25;;;;;;;2.92;2.60;;;20.30;46.50;;;;;;4944147;29;20282;-81
2023/03/19 09:34:52;;;;;;;3.08;2.78;;;20.30;46.50;;;;;;4944189;29;20255;-82
2023/03/19 09:37:19;;;;;;;3.20;2.85;;;20.40;46.50;;;;;;4929473;29;20198;-82
2023/03/19 09:39:46;;;;;;;3.20;2.90;;;20.40;46.30;;;;;;4944333;29;20206;-82
2023/03/19 09:42:24;;;;;;;3.63;2.75;;;20.40;46.20;;;;;;4944885;29;20250;-82
2023/03/19 09:44:53;;;;;;;3.75;2.70;;;20.50;46.40;;;;;;4944595;29;20226;-81
2023/03/19 09:47:25;;;;;;;2.80;2.60;;;20.60;46.30;;;;;;4944629;29;20203;-80
2023/03/19 09:49:53;;;;;;;3.30;3.00;;;20.70;46.30;;;;;;4944900;29;20194;-81
2023/03/19 09:52:32;;;;;;;3.85;2.90;;;20.90;46.30;;;;;;4962007;29;20696;-80
2023/03/19 09:55:01;;;;;;;2.70;2.50;;;21.00;46.30;;;;;;4929259;29;20250;-80
2023/03/19 09:57:28;;;;;;;4.05;2.60;;;21.20;46.00;;;;;;4944698;29;20214;-80
2023/03/19 09:59:57;;;;;;;4.93;2.40;;;21.30;46.00;;;;;;4928799;29;20207;-80
2023/03/19 10:02:36;;;;;;;6.03;2.70;;;21.50;46.90;;;;;;4945732;29;20214;-80
2023/03/19 10:05:08;;;;;;;10.30;5.43;;;21.60;46.20;;;;;;4946067;29;20222;-80
2023/03/19 10:07:49;;;;;;;67.18;33.50;;;21.70;45.90;;;;;;4946331;29;20206;-80
2023/03/19 10:10:26;;;;;;;67.50;35.80;;;21.80;45.40;;;;;;4942874;29;20206;-80
2023/03/19 10:12:59;;;;;;;112.63;58.88;;;21.90;45.80;;;;;;4958792;28;20206;-80
2023/03/19 10:15:28;;;;;;;114.88;59.30;;;22.00;46.90;;;;;;4942190;29;20277;-80
2023/03/19 10:18:00;;;;;;;88.03;47.08;;;22.10;47.50;;;;;;4944206;29;20218;-80
2023/03/19 10:20:34;;;;;;;83.85;42.45;;;22.20;46.70;;;;;;4929421;29;20217;-80
2023/03/19 10:23:16;;;;;;;70.55;41.25;;;22.20;46.60;;;;;;4929822;28;20658;-80
2023/03/19 10:25:43;;;;;;;73.93;38.58;;;22.30;46.70;;;;;;4945152;29;20199;-80
2023/03/19 10:28:13;;;;;;;69.88;38.75;;;22.30;46.50;;;;;;4944762;29;20203;-80
2023/03/19 10:30:42;;;;;;;66.00;36.78;;;22.40;46.50;;;;;;4944459;29;20198;-80
2023/03/19 10:33:15;;;;;;;67.45;37.08;;;22.40;47.10;;;;;;4945412;28;20222;-80
2023/03/19 10:35:44;;;;;;;55.47;31.52;;;22.40;46.90;;;;;;4945436;29;20202;-80
2023/03/19 10:38:18;;;;;;;56.28;32.58;;;22.40;46.50;;;;;;4952655;29;20207;-80
2023/03/19 10:40:51;;;;;;;53.67;32.70;;;22.40;46.40;;;;;;4956302;29;20222;-80
2023/03/19 10:43:20;;;;;;;55.42;31.45;;;22.40;47.10;;;;;;4956582;29;20274;-80
2023/03/19 10:45:49;;;;;;;56.13;31.33;;;22.40;47.10;;;;;;4957090;29;20213;-80
2023/03/19 10:48:17;;;;;;;47.95;27.52;;;22.50;47.60;;;;;;4955500;29;20203;-80
2023/03/19 10:50:48;;;;;;;43.33;26.55;;;22.50;46.70;;;;;;4951469;29;20203;-80
2023/03/19 10:53:26;;;;;;;48.53;28.95;;;22.50;46.50;;;;;;4952001;29;20444;-80
2023/03/19 10:55:55;;;;;;;46.92;26.52;;;22.50;46.80;;;;;;4957372;29;20245;-80
2023/03/19 10:58:23;;;;;;;47.70;24.77;;;22.50;47.30;;;;;;4940011;29;20202;-80
2023/03/19 11:00:56;;;;;;;45.65;24.50;;;22.50;48.20;;;;;;4939816;29;20203;-78
2023/03/19 11:03:31;;;;;;;45.42;24.38;;;22.60;47.20;;;;;;4939518;29;20215;-79
2023/03/19 11:06:06;;;;;;;40.38;23.63;;;22.60;46.30;;;;;;4940209;29;20207;-80
2023/03/19 11:08:35;;;;;;;42.00;22.55;;;22.60;46.30;;;;;;4939753;29;20230;-80
2023/03/19 11:11:02;;;;;;;36.15;21.60;;;22.60;46.50;;;;;;4939568;29;20208;-80
2023/03/19 11:13:28;;;;;;;35.05;21.42;;;22.60;46.40;;;;;;4939313;29;20605;-80
2023/03/19 11:15:59;;;;;;;37.33;20.83;;;22.60;46.00;;;;;;4939340;29;20555;-80
2023/03/19 11:18:28;;;;;;;36.55;20.15;;;22.60;46.10;;;;;;4939869;29;20618;-79
2023/03/19 11:20:57;;;;;;;36.20;19.50;;;22.60;46.00;;;;;;4939366;29;20230;-81
2023/03/19 11:23:25;;;;;;;32.80;18.23;;;22.60;45.60;;;;;;4939590;29;20227;-80
2023/03/19 11:25:52;;;;;;;32.25;18.77;;;22.60;45.30;;;;;;4956658;29;20190;-80
2023/03/19 11:28:20;;;;;;;31.75;18.10;;;22.60;45.60;;;;;;4940026;29;20549;-80
2023/03/19 11:30:52;;;;;;;29.98;16.65;;;22.60;45.40;;;;;;4939108;29;20293;-78
2023/03/19 11:33:41;;;;;;;31.75;17.70;;;22.60;45.30;;;;;;4939072;29;20236;-79
2023/03/19 11:36:11;;;;;;;28.20;15.77;;;22.60;45.30;;;;;;4932895;29;20205;-77
2023/03/19 11:38:45;;;;;;;25.48;15.73;;;22.60;45.30;;;;;;4939223;29;20289;-78
2023/03/19 11:41:16;;;;;;;25.90;15.50;;;22.60;45.20;;;;;;4940471;29;20206;-79
2023/03/19 11:43:55;;;;;;;25.85;14.95;;;22.60;45.10;;;;;;4939674;29;20227;-82
2023/03/19 11:46:34;;;;;;;24.20;14.00;;;22.60;45.00;;;;;;4940133;29;20193;-82
2023/03/19 11:49:12;;;;;;;24.58;13.50;;;22.60;44.90;;;;;;4956859;29;20194;-82
2023/03/19 11:51:41;;;;;;;21.73;13.25;;;22.60;44.90;;;;;;4939771;29;20199;-79
2023/03/19 11:54:11;;;;;;;23.90;13.23;;;22.60;44.80;;;;;;4923218;29;20682;-80
2023/03/19 11:56:40;;;;;;;18.58;11.90;;;22.60;44.70;;;;;;4939328;29;20214;-79
2023/03/19 11:59:32;;;;;;;23.20;12.18;;;22.60;44.60;;;;;;4940987;29;20199;-79
2023/03/19 12:02:25;;;;;;;20.48;11.73;;;22.60;44.40;;;;;;4937774;29;20658;-79
2023/03/19 12:05:03;;;;;;;17.45;11.02;;;22.60;44.10;;;;;;4940988;29;20229;-79
2023/03/19 12:07:32;;;;;;;23.10;11.32;;;22.60;44.00;;;;;;4940474;29;20250;-79
2023/03/19 12:10:22;;;;;;;17.77;10.77;;;22.60;44.00;;;;;;4940493;29;20214;-79
2023/03/19 12:12:51;;;;;;;19.58;10.27;;;22.60;43.70;;;;;;4940361;29;20696;-79
2023/03/19 12:15:20;;;;;;;16.35;10.00;;;22.60;43.80;;;;;;4939649;29;20206;-80
2023/03/19 12:17:57;;;;;;;17.38;9.70;;;22.60;43.60;;;;;;4957576;29;20202;-83
2023/03/19 12:20:51;;;;;;;15.75;9.93;;;22.60;43.70;;;;;;4939786;29;20194;-79
2023/03/19 12:23:32;;;;;;;16.90;9.13;;;22.60;44.50;;;;;;4923553;29;20237;-79
2023/03/19 12:26:03;;;;;;;17.25;9.45;;;22.60;43.90;;;;;;4939323;29;20213;-79
2023/03/19 12:28:30;;;;;;;15.95;9.30;;;22.50;44.00;;;;;;4956860;29;20627;-79
2023/03/19 12:31:18;;;;;;;16.25;8.50;;;22.50;44.20;;;;;;4939778;29;20199;-78
2023/03/19 12:33:49;;;;;;;12.43;6.72;;;22.50;44.50;;;;;;4939285;29;20230;-79
2023/03/19 12:36:21;;;;;;;11.27;6.00;;;22.50;41.90;;;;;;4939348;29;20250;-79
2023/03/19 12:38:49;;;;;;;12.35;5.32;;;22.40;41.00;;;;;;4939939;29;20230;-79
2023/03/19 12:41:19;;;;;;;7.00;4.40;;;22.40;41.50;;;;;;4956658;29;20274;-79
2023/03/19 12:43:49;;;;;;;7.03;4.30;;;22.30;40.50;;;;;;4956424;28;20294;-78
2023/03/19 12:46:18;;;;;;;6.97;3.78;;;22.30;40.10;;;;;;4939143;29;20294;-78
2023/03/19 12:48:46;;;;;;;7.10;4.15;;;22.30;40.80;;;;;;4939280;29;20191;-78
2023/03/19 12:51:15;;;;;;;5.90;3.75;;;22.40;41.20;;;;;;4923545;29;20218;-78
2023/03/19 12:53:48;;;;;;;8.05;4.30;;;22.40;41.30;;;;;;4939335;29;20301;-78
2023/03/19 12:56:19;;;;;;;6.97;3.90;;;22.50;41.70;;;;;;4942796;29;20218;-78
2023/03/19 12:58:51;;;;;;;8.85;3.97;;;22.50;41.70;;;;;;4942224;29;20366;-79